sensor_id;sensor_type;location;lat;lon;timestamp;temperature;humidity
22923;DHT22;11627;51.322;22.816;2022-12-07T00:01:32;1.50;75.80
22923;DHT22;11627;51.322;22.816;2022-12-07T00:04:00;1.80;75.80
22923;DHT22;11627;51.322;22.816;2022-12-07T00:06:31;1.50;75.50
22923;DHT22;11627;51.322;22.816;2022-12-07T00:08:57;1.50;75.40
22923;DHT22;11627;51.322;22.816;2022-12-07T00:11:23;1.50;75.20
22923;DHT22;11627;51.322;22.816;2022-12-07T00:13:57;1.80;76.30
22923;DHT22;11627;51.322;22.816;2022-12-07T00:16:26;2.50;76.30
22923;DHT22;11627;51.322;22.816;2022-12-07T00:18:52;2.40;75.80
22923;DHT22;11627;51.322;22.816;2022-12-07T00:21:23;1.70;75.50
22923;DHT22;11627;51.322;22.816;2022-12-07T00:23:50;1.70;75.70
22923;DHT22;11627;51.322;22.816;2022-12-07T00:28:47;1.70;76.30
22923;DHT22;11627;51.322;22.816;2022-12-07T00:31:14;1.70;76.40
22923;DHT22;11627;51.322;22.816;2022-12-07T00:33:39;1.70;76.80
22923;DHT22;11627;51.322;22.816;2022-12-07T00:36:11;1.70;77.00
22923;DHT22;11627;51.322;22.816;2022-12-07T00:38:38;1.80;77.50
22923;DHT22;11627;51.322;22.816;2022-12-07T00:41:07;1.80;78.00
22923;DHT22;11627;51.322;22.816;2022-12-07T00:43:33;1.80;78.30
22923;DHT22;11627;51.322;22.816;2022-12-07T00:45:59;1.80;78.30
22923;DHT22;11627;51.322;22.816;2022-12-07T00:48:25;1.80;78.80
22923;DHT22;11627;51.322;22.816;2022-12-07T00:50:51;1.70;79.20
22923;DHT22;11627;51.322;22.816;2022-12-07T00:53:17;1.80;80.00
22923;DHT22;11627;51.322;22.816;2022-12-07T00:55:43;1.80;79.60
22923;DHT22;11627;51.322;22.816;2022-12-07T00:58:09;1.80;79.40
22923;DHT22;11627;51.322;22.816;2022-12-07T01:00:39;1.90;79.60
22923;DHT22;11627;51.322;22.816;2022-12-07T01:03:06;1.90;79.50
22923;DHT22;11627;51.322;22.816;2022-12-07T01:05:32;1.90;79.30
22923;DHT22;11627;51.322;22.816;2022-12-07T01:07:58;1.80;79.70
22923;DHT22;11627;51.322;22.816;2022-12-07T01:10:24;1.90;79.90
22923;DHT22;11627;51.322;22.816;2022-12-07T01:12:49;1.80;80.00
22923;DHT22;11627;51.322;22.816;2022-12-07T01:15:15;1.90;80.80
22923;DHT22;11627;51.322;22.816;2022-12-07T01:17:41;1.90;80.10
22923;DHT22;11627;51.322;22.816;2022-12-07T01:20:07;1.90;80.00
22923;DHT22;11627;51.322;22.816;2022-12-07T01:22:42;1.90;80.10
22923;DHT22;11627;51.322;22.816;2022-12-07T01:25:10;1.90;80.20
22923;DHT22;11627;51.322;22.816;2022-12-07T01:27:36;2.00;80.70
22923;DHT22;11627;51.322;22.816;2022-12-07T01:30:04;2.00;79.70
22923;DHT22;11627;51.322;22.816;2022-12-07T01:32:30;2.00;79.70
22923;DHT22;11627;51.322;22.816;2022-12-07T01:34:56;2.00;80.80
22923;DHT22;11627;51.322;22.816;2022-12-07T01:37:21;2.00;80.50
22923;DHT22;11627;51.322;22.816;2022-12-07T01:39:51;2.00;80.80
22923;DHT22;11627;51.322;22.816;2022-12-07T01:42:17;2.00;81.00
22923;DHT22;11627;51.322;22.816;2022-12-07T01:47:57;2.00;81.10
22923;DHT22;11627;51.322;22.816;2022-12-07T01:50:26;2.00;81.00
22923;DHT22;11627;51.322;22.816;2022-12-07T01:52:55;1.90;80.80
22923;DHT22;11627;51.322;22.816;2022-12-07T01:55:22;1.80;81.40
22923;DHT22;11627;51.322;22.816;2022-12-07T01:57:50;1.80;81.60
22923;DHT22;11627;51.322;22.816;2022-12-07T02:00:16;1.70;82.10
22923;DHT22;11627;51.322;22.816;2022-12-07T02:03:45;1.80;82.60
22923;DHT22;11627;51.322;22.816;2022-12-07T02:06:05;1.80;82.20
22923;DHT22;11627;51.322;22.816;2022-12-07T02:08:32;2.00;82.40
22923;DHT22;11627;51.322;22.816;2022-12-07T02:10:58;2.00;81.90
22923;DHT22;11627;51.322;22.816;2022-12-07T02:13:31;2.00;81.30
22923;DHT22;11627;51.322;22.816;2022-12-07T02:16:24;2.00;81.20
22923;DHT22;11627;51.322;22.816;2022-12-07T02:27:29;1.90;81.70
22923;DHT22;11627;51.322;22.816;2022-12-07T02:30:17;1.90;81.80
22923;DHT22;11627;51.322;22.816;2022-12-07T02:35:17;1.80;82.30
22923;DHT22;11627;51.322;22.816;2022-12-07T02:40:55;1.70;83.20
22923;DHT22;11627;51.322;22.816;2022-12-07T02:43:27;1.70;83.70
22923;DHT22;11627;51.322;22.816;2022-12-07T02:45:56;1.70;83.80
22923;DHT22;11627;51.322;22.816;2022-12-07T02:48:23;1.70;83.80
22923;DHT22;11627;51.322;22.816;2022-12-07T02:50:53;1.80;83.50
22923;DHT22;11627;51.322;22.816;2022-12-07T02:55:55;1.90;83.20
22923;DHT22;11627;51.322;22.816;2022-12-07T02:59:05;1.90;82.80
22923;DHT22;11627;51.322;22.816;2022-12-07T03:04:20;2.00;81.70
22923;DHT22;11627;51.322;22.816;2022-12-07T03:07:08;2.20;81.30
22923;DHT22;11627;51.322;22.816;2022-12-07T03:12:14;2.00;80.90
22923;DHT22;11627;51.322;22.816;2022-12-07T03:14:47;2.00;81.00
22923;DHT22;11627;51.322;22.816;2022-12-07T03:17:23;2.10;80.80
22923;DHT22;11627;51.322;22.816;2022-12-07T03:19:52;2.00;80.70
22923;DHT22;11627;51.322;22.816;2022-12-07T03:22:19;2.00;80.70
22923;DHT22;11627;51.322;22.816;2022-12-07T03:24:51;2.10;80.60
22923;DHT22;11627;51.322;22.816;2022-12-07T03:27:24;2.00;80.70
22923;DHT22;11627;51.322;22.816;2022-12-07T03:30:04;2.10;80.80
22923;DHT22;11627;51.322;22.816;2022-12-07T03:32:37;2.20;82.00
22923;DHT22;11627;51.322;22.816;2022-12-07T03:38:05;2.10;82.80
22923;DHT22;11627;51.322;22.816;2022-12-07T03:43:02;2.10;83.40
22923;DHT22;11627;51.322;22.816;2022-12-07T03:45:37;2.00;83.40
22923;DHT22;11627;51.322;22.816;2022-12-07T03:48:08;2.00;83.80
22923;DHT22;11627;51.322;22.816;2022-12-07T03:50:55;2.00;84.20
22923;DHT22;11627;51.322;22.816;2022-12-07T03:55:58;2.10;84.80
22923;DHT22;11627;51.322;22.816;2022-12-07T03:58:24;2.10;83.90
22923;DHT22;11627;51.322;22.816;2022-12-07T04:00:51;2.00;84.10
22923;DHT22;11627;51.322;22.816;2022-12-07T04:03:16;2.00;84.80
22923;DHT22;11627;51.322;22.816;2022-12-07T04:05:42;2.00;84.70
22923;DHT22;11627;51.322;22.816;2022-12-07T04:08:08;2.10;84.90
22923;DHT22;11627;51.322;22.816;2022-12-07T04:10:34;1.90;84.30
22923;DHT22;11627;51.322;22.816;2022-12-07T04:13:00;2.30;84.60
22923;DHT22;11627;51.322;22.816;2022-12-07T04:15:26;1.80;84.60
22923;DHT22;11627;51.322;22.816;2022-12-07T04:17:51;1.60;85.10
22923;DHT22;11627;51.322;22.816;2022-12-07T04:20:17;1.60;85.80
22923;DHT22;11627;51.322;22.816;2022-12-07T04:22:42;1.60;86.30
22923;DHT22;11627;51.322;22.816;2022-12-07T04:25:08;1.50;86.50
22923;DHT22;11627;51.322;22.816;2022-12-07T04:27:34;1.50;86.20
22923;DHT22;11627;51.322;22.816;2022-12-07T04:29:59;1.50;85.90
22923;DHT22;11627;51.322;22.816;2022-12-07T04:32:25;1.40;85.30
22923;DHT22;11627;51.322;22.816;2022-12-07T04:34:50;1.40;85.50
22923;DHT22;11627;51.322;22.816;2022-12-07T04:37:16;1.40;85.80
22923;DHT22;11627;51.322;22.816;2022-12-07T04:39:43;1.50;85.70
22923;DHT22;11627;51.322;22.816;2022-12-07T04:42:10;1.50;85.50
22923;DHT22;11627;51.322;22.816;2022-12-07T04:44:36;1.50;84.90
22923;DHT22;11627;51.322;22.816;2022-12-07T04:47:01;1.50;84.50
22923;DHT22;11627;51.322;22.816;2022-12-07T04:49:27;1.50;84.10
22923;DHT22;11627;51.322;22.816;2022-12-07T04:51:53;1.50;83.30
22923;DHT22;11627;51.322;22.816;2022-12-07T04:54:18;1.60;83.00
22923;DHT22;11627;51.322;22.816;2022-12-07T04:56:44;1.60;82.00
22923;DHT22;11627;51.322;22.816;2022-12-07T04:59:14;1.50;80.50
22923;DHT22;11627;51.322;22.816;2022-12-07T05:01:41;1.60;80.20
22923;DHT22;11627;51.322;22.816;2022-12-07T05:04:07;1.50;79.70
22923;DHT22;11627;51.322;22.816;2022-12-07T05:06:33;1.50;79.70
22923;DHT22;11627;51.322;22.816;2022-12-07T05:08:58;1.50;80.60
22923;DHT22;11627;51.322;22.816;2022-12-07T05:11:24;1.50;79.10
22923;DHT22;11627;51.322;22.816;2022-12-07T05:14:17;1.40;78.40
22923;DHT22;11627;51.322;22.816;2022-12-07T05:16:45;1.40;78.70
22923;DHT22;11627;51.322;22.816;2022-12-07T05:19:11;1.40;78.60
22923;DHT22;11627;51.322;22.816;2022-12-07T05:21:37;1.30;79.00
22923;DHT22;11627;51.322;22.816;2022-12-07T05:24:04;1.40;79.30
22923;DHT22;11627;51.322;22.816;2022-12-07T05:26:30;1.30;78.10
22923;DHT22;11627;51.322;22.816;2022-12-07T05:28:56;1.20;78.90
22923;DHT22;11627;51.322;22.816;2022-12-07T05:31:23;1.30;78.80
22923;DHT22;11627;51.322;22.816;2022-12-07T05:33:49;1.20;78.60
22923;DHT22;11627;51.322;22.816;2022-12-07T05:36:15;1.30;79.80
22923;DHT22;11627;51.322;22.816;2022-12-07T05:38:41;1.20;79.30
22923;DHT22;11627;51.322;22.816;2022-12-07T05:41:07;1.20;79.70
22923;DHT22;11627;51.322;22.816;2022-12-07T05:43:53;1.20;79.60
22923;DHT22;11627;51.322;22.816;2022-12-07T05:46:18;1.20;79.40
22923;DHT22;11627;51.322;22.816;2022-12-07T05:48:44;1.20;79.10
22923;DHT22;11627;51.322;22.816;2022-12-07T05:51:09;1.20;79.50
22923;DHT22;11627;51.322;22.816;2022-12-07T05:53:35;1.10;80.50
22923;DHT22;11627;51.322;22.816;2022-12-07T05:56:01;1.10;80.80
22923;DHT22;11627;51.322;22.816;2022-12-07T05:58:26;1.20;80.20
22923;DHT22;11627;51.322;22.816;2022-12-07T06:01:10;1.10;80.40
22923;DHT22;11627;51.322;22.816;2022-12-07T06:03:36;1.10;81.60
22923;DHT22;11627;51.322;22.816;2022-12-07T06:06:01;1.20;81.60
22923;DHT22;11627;51.322;22.816;2022-12-07T06:08:27;1.20;80.40
22923;DHT22;11627;51.322;22.816;2022-12-07T06:10:53;1.20;80.30
22923;DHT22;11627;51.322;22.816;2022-12-07T06:13:38;1.30;80.30
22923;DHT22;11627;51.322;22.816;2022-12-07T06:16:04;2.10;79.30
22923;DHT22;11627;51.322;22.816;2022-12-07T06:18:30;1.30;78.40
22923;DHT22;11627;51.322;22.816;2022-12-07T06:20:55;1.40;79.00
22923;DHT22;11627;51.322;22.816;2022-12-07T06:23:21;1.40;78.20
22923;DHT22;11627;51.322;22.816;2022-12-07T06:25:46;1.30;78.70
22923;DHT22;11627;51.322;22.816;2022-12-07T06:28:12;1.60;81.40
22923;DHT22;11627;51.322;22.816;2022-12-07T06:30:37;1.20;81.40
22923;DHT22;11627;51.322;22.816;2022-12-07T06:33:03;1.30;81.00
22923;DHT22;11627;51.322;22.816;2022-12-07T06:35:29;1.20;80.80
22923;DHT22;11627;51.322;22.816;2022-12-07T06:37:54;1.20;81.10
22923;DHT22;11627;51.322;22.816;2022-12-07T06:40:20;1.30;81.50
22923;DHT22;11627;51.322;22.816;2022-12-07T06:42:45;1.50;81.50
22923;DHT22;11627;51.322;22.816;2022-12-07T06:45:11;1.40;80.80
22923;DHT22;11627;51.322;22.816;2022-12-07T06:47:36;1.30;80.10
22923;DHT22;11627;51.322;22.816;2022-12-07T06:50:02;1.30;80.30
22923;DHT22;11627;51.322;22.816;2022-12-07T06:52:28;1.40;80.20
22923;DHT22;11627;51.322;22.816;2022-12-07T06:54:54;1.30;79.80
22923;DHT22;11627;51.322;22.816;2022-12-07T06:57:19;1.40;80.20
22923;DHT22;11627;51.322;22.816;2022-12-07T06:59:45;1.60;79.70
22923;DHT22;11627;51.322;22.816;2022-12-07T07:02:11;1.50;78.70
22923;DHT22;11627;51.322;22.816;2022-12-07T07:04:36;1.50;77.90
22923;DHT22;11627;51.322;22.816;2022-12-07T07:07:02;1.60;77.30
22923;DHT22;11627;51.322;22.816;2022-12-07T07:09:28;1.50;76.80
22923;DHT22;11627;51.322;22.816;2022-12-07T07:11:54;1.50;77.30
22923;DHT22;11627;51.322;22.816;2022-12-07T07:14:19;1.50;77.60
22923;DHT22;11627;51.322;22.816;2022-12-07T07:16:46;1.50;78.80
22923;DHT22;11627;51.322;22.816;2022-12-07T07:19:12;1.40;79.20
22923;DHT22;11627;51.322;22.816;2022-12-07T07:21:37;1.50;80.00
22923;DHT22;11627;51.322;22.816;2022-12-07T07:24:03;1.40;79.40
22923;DHT22;11627;51.322;22.816;2022-12-07T07:26:29;1.40;79.40
22923;DHT22;11627;51.322;22.816;2022-12-07T07:28:55;1.90;79.20
22923;DHT22;11627;51.322;22.816;2022-12-07T07:31:21;1.50;78.20
22923;DHT22;11627;51.322;22.816;2022-12-07T07:33:46;1.50;78.20
22923;DHT22;11627;51.322;22.816;2022-12-07T07:36:12;1.40;77.90
22923;DHT22;11627;51.322;22.816;2022-12-07T07:38:38;1.40;78.10
22923;DHT22;11627;51.322;22.816;2022-12-07T07:41:03;1.50;78.30
22923;DHT22;11627;51.322;22.816;2022-12-07T07:43:29;1.40;78.30
22923;DHT22;11627;51.322;22.816;2022-12-07T07:45:55;1.40;78.30
22923;DHT22;11627;51.322;22.816;2022-12-07T07:48:20;1.40;77.90
22923;DHT22;11627;51.322;22.816;2022-12-07T07:50:48;1.50;78.60
22923;DHT22;11627;51.322;22.816;2022-12-07T07:53:13;1.40;76.90
22923;DHT22;11627;51.322;22.816;2022-12-07T07:55:39;1.40;78.40
22923;DHT22;11627;51.322;22.816;2022-12-07T07:58:04;1.50;78.30
22923;DHT22;11627;51.322;22.816;2022-12-07T08:00:30;1.50;78.30
22923;DHT22;11627;51.322;22.816;2022-12-07T08:02:55;1.50;76.40
22923;DHT22;11627;51.322;22.816;2022-12-07T08:05:21;2.00;76.80
22923;DHT22;11627;51.322;22.816;2022-12-07T08:07:47;1.50;76.90
22923;DHT22;11627;51.322;22.816;2022-12-07T08:10:14;1.40;78.20
22923;DHT22;11627;51.322;22.816;2022-12-07T08:12:42;1.50;77.30
22923;DHT22;11627;51.322;22.816;2022-12-07T08:15:30;1.40;77.50
22923;DHT22;11627;51.322;22.816;2022-12-07T08:17:56;1.40;77.70
22923;DHT22;11627;51.322;22.816;2022-12-07T08:20:22;1.40;77.50
22923;DHT22;11627;51.322;22.816;2022-12-07T08:22:48;1.40;77.40
22923;DHT22;11627;51.322;22.816;2022-12-07T08:25:14;1.50;77.20
22923;DHT22;11627;51.322;22.816;2022-12-07T08:27:39;1.40;77.20
22923;DHT22;11627;51.322;22.816;2022-12-07T08:30:05;1.50;76.90
22923;DHT22;11627;51.322;22.816;2022-12-07T08:32:31;1.40;76.80
22923;DHT22;11627;51.322;22.816;2022-12-07T08:34:57;1.40;76.20
22923;DHT22;11627;51.322;22.816;2022-12-07T08:37:22;1.40;77.70
22923;DHT22;11627;51.322;22.816;2022-12-07T08:39:48;1.40;78.30
22923;DHT22;11627;51.322;22.816;2022-12-07T08:42:13;2.20;78.20
22923;DHT22;11627;51.322;22.816;2022-12-07T08:44:39;1.40;76.30
22923;DHT22;11627;51.322;22.816;2022-12-07T08:47:06;2.20;77.40
22923;DHT22;11627;51.322;22.816;2022-12-07T08:49:38;1.40;77.00
22923;DHT22;11627;51.322;22.816;2022-12-07T08:52:05;1.30;78.20
22923;DHT22;11627;51.322;22.816;2022-12-07T08:54:34;1.30;79.40
22923;DHT22;11627;51.322;22.816;2022-12-07T08:57:01;1.80;79.20
22923;DHT22;11627;51.322;22.816;2022-12-07T08:59:27;1.30;79.60
22923;DHT22;11627;51.322;22.816;2022-12-07T09:01:54;1.40;80.80
22923;DHT22;11627;51.322;22.816;2022-12-07T09:04:19;1.40;81.10
22923;DHT22;11627;51.322;22.816;2022-12-07T09:06:45;1.40;81.20
22923;DHT22;11627;51.322;22.816;2022-12-07T09:09:12;1.50;80.90
22923;DHT22;11627;51.322;22.816;2022-12-07T09:11:39;1.50;81.60
22923;DHT22;11627;51.322;22.816;2022-12-07T09:14:05;1.50;80.80
22923;DHT22;11627;51.322;22.816;2022-12-07T09:16:30;1.50;80.30
22923;DHT22;11627;51.322;22.816;2022-12-07T09:18:56;1.50;80.10
22923;DHT22;11627;51.322;22.816;2022-12-07T09:21:22;1.60;80.80
22923;DHT22;11627;51.322;22.816;2022-12-07T09:23:47;1.60;80.20
22923;DHT22;11627;51.322;22.816;2022-12-07T09:26:13;1.50;80.10
22923;DHT22;11627;51.322;22.816;2022-12-07T09:28:39;1.60;80.80
22923;DHT22;11627;51.322;22.816;2022-12-07T09:31:05;1.60;80.70
22923;DHT22;11627;51.322;22.816;2022-12-07T09:33:31;1.60;79.50
22923;DHT22;11627;51.322;22.816;2022-12-07T09:35:57;1.50;80.50
22923;DHT22;11627;51.322;22.816;2022-12-07T09:38:23;1.50;80.40
22923;DHT22;11627;51.322;22.816;2022-12-07T09:40:52;1.40;80.10
22923;DHT22;11627;51.322;22.816;2022-12-07T09:43:21;1.50;80.10
22923;DHT22;11627;51.322;22.816;2022-12-07T09:45:51;1.50;79.70
22923;DHT22;11627;51.322;22.816;2022-12-07T09:48:25;1.50;79.10
22923;DHT22;11627;51.322;22.816;2022-12-07T09:50:55;1.50;78.90
22923;DHT22;11627;51.322;22.816;2022-12-07T09:53:34;1.60;78.70
22923;DHT22;11627;51.322;22.816;2022-12-07T09:56:01;1.60;78.50
22923;DHT22;11627;51.322;22.816;2022-12-07T09:58:29;1.60;78.30
22923;DHT22;11627;51.322;22.816;2022-12-07T10:03:35;1.60;79.10
22923;DHT22;11627;51.322;22.816;2022-12-07T10:06:01;1.60;79.00
22923;DHT22;11627;51.322;22.816;2022-12-07T10:08:27;1.60;78.80
22923;DHT22;11627;51.322;22.816;2022-12-07T10:10:55;1.60;79.00
22923;DHT22;11627;51.322;22.816;2022-12-07T10:13:34;1.60;78.70
22923;DHT22;11627;51.322;22.816;2022-12-07T10:16:01;1.50;78.50
22923;DHT22;11627;51.322;22.816;2022-12-07T10:18:32;1.50;79.30
22923;DHT22;11627;51.322;22.816;2022-12-07T10:21:18;1.50;79.70
22923;DHT22;11627;51.322;22.816;2022-12-07T10:24:13;1.60;79.50
22923;DHT22;11627;51.322;22.816;2022-12-07T10:26:49;1.50;80.10
22923;DHT22;11627;51.322;22.816;2022-12-07T10:29:28;1.50;79.90
22923;DHT22;11627;51.322;22.816;2022-12-07T10:32:00;1.50;79.80
22923;DHT22;11627;51.322;22.816;2022-12-07T10:34:35;1.40;80.00
22923;DHT22;11627;51.322;22.816;2022-12-07T10:42:23;1.60;78.50
22923;DHT22;11627;51.322;22.816;2022-12-07T10:44:50;1.50;78.30
22923;DHT22;11627;51.322;22.816;2022-12-07T10:56:16;1.40;80.50
22923;DHT22;11627;51.322;22.816;2022-12-07T11:04:36;1.60;80.40
22923;DHT22;11627;51.322;22.816;2022-12-07T11:07:10;1.60;80.50
22923;DHT22;11627;51.322;22.816;2022-12-07T11:15:36;1.60;81.60
22923;DHT22;11627;51.322;22.816;2022-12-07T11:18:37;1.60;81.40
22923;DHT22;11627;51.322;22.816;2022-12-07T11:21:24;1.50;82.70
22923;DHT22;11627;51.322;22.816;2022-12-07T11:24:15;1.50;83.10
22923;DHT22;11627;51.322;22.816;2022-12-07T11:29:46;1.50;84.80
22923;DHT22;11627;51.322;22.816;2022-12-07T11:37:56;1.50;86.00
22923;DHT22;11627;51.322;22.816;2022-12-07T11:40:34;1.50;85.40
22923;DHT22;11627;51.322;22.816;2022-12-07T11:43:19;1.50;84.90
22923;DHT22;11627;51.322;22.816;2022-12-07T11:45:51;1.50;85.30
22923;DHT22;11627;51.322;22.816;2022-12-07T11:48:25;1.80;86.40
22923;DHT22;11627;51.322;22.816;2022-12-07T11:50:58;1.50;85.40
22923;DHT22;11627;51.322;22.816;2022-12-07T11:54:05;1.50;85.30
22923;DHT22;11627;51.322;22.816;2022-12-07T11:56:34;1.50;84.60
22923;DHT22;11627;51.322;22.816;2022-12-07T11:59:12;1.50;83.60
22923;DHT22;11627;51.322;22.816;2022-12-07T12:06:40;1.50;83.10
22923;DHT22;11627;51.322;22.816;2022-12-07T12:09:55;1.50;83.00
22923;DHT22;11627;51.322;22.816;2022-12-07T12:14:57;1.50;83.10
22923;DHT22;11627;51.322;22.816;2022-12-07T12:20:19;1.60;83.50
22923;DHT22;11627;51.322;22.816;2022-12-07T12:25:36;1.50;84.10
22923;DHT22;11627;51.322;22.816;2022-12-07T12:28:03;1.50;84.30
22923;DHT22;11627;51.322;22.816;2022-12-07T12:30:37;1.60;83.70
22923;DHT22;11627;51.322;22.816;2022-12-07T12:33:22;1.60;83.10
22923;DHT22;11627;51.322;22.816;2022-12-07T12:47:00;1.70;81.20
22923;DHT22;11627;51.322;22.816;2022-12-07T12:49:38;2.50;81.80
22923;DHT22;11627;51.322;22.816;2022-12-07T12:57:38;1.80;79.70
22923;DHT22;11627;51.322;22.816;2022-12-07T13:00:20;1.80;78.50
22923;DHT22;11627;51.322;22.816;2022-12-07T13:02:50;1.80;78.40
22923;DHT22;11627;51.322;22.816;2022-12-07T13:05:31;1.70;77.90
22923;DHT22;11627;51.322;22.816;2022-12-07T13:15:43;1.70;78.60
22923;DHT22;11627;51.322;22.816;2022-12-07T13:20:55;1.70;79.20
22923;DHT22;11627;51.322;22.816;2022-12-07T13:26:45;1.70;77.40
22923;DHT22;11627;51.322;22.816;2022-12-07T13:29:29;1.70;78.30
22923;DHT22;11627;51.322;22.816;2022-12-07T13:32:04;1.70;77.80
22923;DHT22;11627;51.322;22.816;2022-12-07T13:39:50;1.70;77.80
22923;DHT22;11627;51.322;22.816;2022-12-07T13:42:27;1.80;77.30
22923;DHT22;11627;51.322;22.816;2022-12-07T13:44:59;1.80;77.00
22923;DHT22;11627;51.322;22.816;2022-12-07T13:47:36;1.70;77.00
22923;DHT22;11627;51.322;22.816;2022-12-07T13:50:24;1.70;78.40
22923;DHT22;11627;51.322;22.816;2022-12-07T13:52:55;1.70;79.10
22923;DHT22;11627;51.322;22.816;2022-12-07T13:55:21;1.60;78.60
22923;DHT22;11627;51.322;22.816;2022-12-07T13:57:52;1.60;79.10
22923;DHT22;11627;51.322;22.816;2022-12-07T14:00:24;1.60;79.60
22923;DHT22;11627;51.322;22.816;2022-12-07T14:02:57;1.60;79.30
22923;DHT22;11627;51.322;22.816;2022-12-07T14:05:32;1.60;79.70
22923;DHT22;11627;51.322;22.816;2022-12-07T14:08:04;1.60;79.70
22923;DHT22;11627;51.322;22.816;2022-12-07T14:10:36;1.70;79.30
22923;DHT22;11627;51.322;22.816;2022-12-07T14:15:50;1.60;78.60
22923;DHT22;11627;51.322;22.816;2022-12-07T14:23:39;1.60;78.70
22923;DHT22;11627;51.322;22.816;2022-12-07T14:26:13;1.70;77.20
22923;DHT22;11627;51.322;22.816;2022-12-07T14:28:40;1.70;76.00
22923;DHT22;11627;51.322;22.816;2022-12-07T14:31:18;1.70;76.00
22923;DHT22;11627;51.322;22.816;2022-12-07T14:33:45;1.80;75.90
22923;DHT22;11627;51.322;22.816;2022-12-07T14:36:12;2.70;75.40
22923;DHT22;11627;51.322;22.816;2022-12-07T14:38:38;1.90;74.90
22923;DHT22;11627;51.322;22.816;2022-12-07T14:41:10;1.80;75.00
22923;DHT22;11627;51.322;22.816;2022-12-07T14:43:57;1.80;74.80
22923;DHT22;11627;51.322;22.816;2022-12-07T14:46:22;1.80;74.70
22923;DHT22;11627;51.322;22.816;2022-12-07T14:48:48;2.00;74.90
22923;DHT22;11627;51.322;22.816;2022-12-07T14:51:13;2.50;74.90
22923;DHT22;11627;51.322;22.816;2022-12-07T14:53:44;2.10;74.70
22923;DHT22;11627;51.322;22.816;2022-12-07T14:56:11;2.50;74.70
22923;DHT22;11627;51.322;22.816;2022-12-07T14:58:37;1.80;74.40
22923;DHT22;11627;51.322;22.816;2022-12-07T15:01:03;1.80;74.50
22923;DHT22;11627;51.322;22.816;2022-12-07T15:03:29;1.80;74.30
22923;DHT22;11627;51.322;22.816;2022-12-07T15:05:55;1.70;75.00
22923;DHT22;11627;51.322;22.816;2022-12-07T15:08:20;1.70;75.60
22923;DHT22;11627;51.322;22.816;2022-12-07T15:10:46;1.70;75.30
22923;DHT22;11627;51.322;22.816;2022-12-07T15:13:12;1.70;75.00
22923;DHT22;11627;51.322;22.816;2022-12-07T15:15:57;1.70;74.40
22923;DHT22;11627;51.322;22.816;2022-12-07T15:18:23;1.60;75.80
22923;DHT22;11627;51.322;22.816;2022-12-07T15:20:50;1.70;76.20
22923;DHT22;11627;51.322;22.816;2022-12-07T15:23:16;1.70;75.20
22923;DHT22;11627;51.322;22.816;2022-12-07T15:25:44;1.70;75.40
22923;DHT22;11627;51.322;22.816;2022-12-07T15:28:09;1.70;74.20
22923;DHT22;11627;51.322;22.816;2022-12-07T15:30:37;1.70;74.50
22923;DHT22;11627;51.322;22.816;2022-12-07T15:33:03;1.70;74.00
22923;DHT22;11627;51.322;22.816;2022-12-07T15:35:29;1.70;73.60
22923;DHT22;11627;51.322;22.816;2022-12-07T15:37:54;2.10;74.10
22923;DHT22;11627;51.322;22.816;2022-12-07T15:40:20;1.80;73.30
22923;DHT22;11627;51.322;22.816;2022-12-07T15:42:46;2.60;73.70
22923;DHT22;11627;51.322;22.816;2022-12-07T15:45:12;1.90;72.60
22923;DHT22;11627;51.322;22.816;2022-12-07T15:47:43;1.90;72.00
22923;DHT22;11627;51.322;22.816;2022-12-07T15:50:13;1.80;71.80
22923;DHT22;11627;51.322;22.816;2022-12-07T15:52:39;1.80;71.90
22923;DHT22;11627;51.322;22.816;2022-12-07T15:55:05;1.90;72.40
22923;DHT22;11627;51.322;22.816;2022-12-07T15:57:32;1.80;72.60
22923;DHT22;11627;51.322;22.816;2022-12-07T15:59:58;1.80;72.60
22923;DHT22;11627;51.322;22.816;2022-12-07T16:02:24;1.80;72.60
22923;DHT22;11627;51.322;22.816;2022-12-07T16:04:50;1.90;72.60
22923;DHT22;11627;51.322;22.816;2022-12-07T16:07:17;2.00;72.00
22923;DHT22;11627;51.322;22.816;2022-12-07T16:09:44;1.90;72.40
22923;DHT22;11627;51.322;22.816;2022-12-07T16:12:10;1.90;71.90
22923;DHT22;11627;51.322;22.816;2022-12-07T16:14:37;1.90;72.10
22923;DHT22;11627;51.322;22.816;2022-12-07T16:17:03;1.90;71.80
22923;DHT22;11627;51.322;22.816;2022-12-07T16:19:30;1.90;71.70
22923;DHT22;11627;51.322;22.816;2022-12-07T16:21:56;1.90;71.20
22923;DHT22;11627;51.322;22.816;2022-12-07T16:24:22;1.90;70.50
22923;DHT22;11627;51.322;22.816;2022-12-07T16:26:48;1.90;70.30
22923;DHT22;11627;51.322;22.816;2022-12-07T16:29:14;1.90;71.30
22923;DHT22;11627;51.322;22.816;2022-12-07T16:31:40;1.90;70.20
22923;DHT22;11627;51.322;22.816;2022-12-07T16:34:06;1.90;70.20
22923;DHT22;11627;51.322;22.816;2022-12-07T16:36:32;2.10;69.50
22923;DHT22;11627;51.322;22.816;2022-12-07T16:38:59;1.90;69.90
22923;DHT22;11627;51.322;22.816;2022-12-07T16:41:25;1.90;69.40
22923;DHT22;11627;51.322;22.816;2022-12-07T16:43:51;1.80;70.10
22923;DHT22;11627;51.322;22.816;2022-12-07T16:46:17;1.80;70.50
22923;DHT22;11627;51.322;22.816;2022-12-07T16:48:43;1.80;69.80
22923;DHT22;11627;51.322;22.816;2022-12-07T16:51:11;1.90;70.10
22923;DHT22;11627;51.322;22.816;2022-12-07T16:53:39;1.80;69.50
22923;DHT22;11627;51.322;22.816;2022-12-07T16:56:13;2.30;69.90
22923;DHT22;11627;51.322;22.816;2022-12-07T16:58:40;1.80;70.90
22923;DHT22;11627;51.322;22.816;2022-12-07T17:01:18;1.90;70.30
22923;DHT22;11627;51.322;22.816;2022-12-07T17:03:45;1.80;70.40
22923;DHT22;11627;51.322;22.816;2022-12-07T17:06:12;1.90;70.50
22923;DHT22;11627;51.322;22.816;2022-12-07T17:08:39;1.80;69.70
22923;DHT22;11627;51.322;22.816;2022-12-07T17:11:13;1.90;70.80
22923;DHT22;11627;51.322;22.816;2022-12-07T17:13:40;1.90;70.30
22923;DHT22;11627;51.322;22.816;2022-12-07T17:16:24;1.90;69.90
22923;DHT22;11627;51.322;22.816;2022-12-07T17:18:50;1.90;69.80
22923;DHT22;11627;51.322;22.816;2022-12-07T17:21:15;1.90;70.60
22923;DHT22;11627;51.322;22.816;2022-12-07T17:23:41;1.90;69.80
22923;DHT22;11627;51.322;22.816;2022-12-07T17:26:09;2.00;69.80
22923;DHT22;11627;51.322;22.816;2022-12-07T17:28:35;1.90;69.30
22923;DHT22;11627;51.322;22.816;2022-12-07T17:31:04;2.40;69.80
22923;DHT22;11627;51.322;22.816;2022-12-07T17:33:31;1.90;69.50
22923;DHT22;11627;51.322;22.816;2022-12-07T17:35:57;2.20;70.10
22923;DHT22;11627;51.322;22.816;2022-12-07T17:38:22;2.00;70.10
22923;DHT22;11627;51.322;22.816;2022-12-07T17:40:48;2.00;70.10
22923;DHT22;11627;51.322;22.816;2022-12-07T17:43:14;2.00;70.40
22923;DHT22;11627;51.322;22.816;2022-12-07T17:45:39;3.00;71.40
22923;DHT22;11627;51.322;22.816;2022-12-07T17:48:05;1.90;71.00
22923;DHT22;11627;51.322;22.816;2022-12-07T17:50:31;2.00;71.30
22923;DHT22;11627;51.322;22.816;2022-12-07T17:53:15;2.00;71.00